createdAt,value
2023-04-15T00:01:11.631Z,9.50
2023-04-15T00:03:38.519Z,9.40
2023-04-15T00:06:05.508Z,9.50
2023-04-15T00:08:32.136Z,9.50
2023-04-15T00:11:02.781Z,9.50
2023-04-15T00:13:29.976Z,9.50
2023-04-15T00:15:56.619Z,9.40
2023-04-15T00:18:24.632Z,9.40
2023-04-15T00:20:54.391Z,9.40
2023-04-15T00:23:21.256Z,9.40
2023-04-15T00:25:47.837Z,9.30
2023-04-15T00:28:14.679Z,9.30
2023-04-15T00:30:41.554Z,9.30
2023-04-15T00:33:08.556Z,9.30
2023-04-15T00:35:37.439Z,9.30
2023-04-15T00:38:04.870Z,9.20
2023-04-15T00:40:31.602Z,9.20
2023-04-15T00:42:58.215Z,9.10
2023-04-15T00:45:25.508Z,9.10
2023-04-15T00:47:52.165Z,9.10
2023-04-15T00:50:19.119Z,9.00
2023-04-15T00:52:45.725Z,9.00
2023-04-15T00:55:12.674Z,9.00
2023-04-15T00:57:40.143Z,9.00
2023-04-15T01:00:11.752Z,9.00
2023-04-15T01:02:39.237Z,8.80
2023-04-15T01:05:06.297Z,8.80
2023-04-15T01:07:33.100Z,8.80
2023-04-15T01:10:00.095Z,8.80
2023-04-15T01:12:27.457Z,8.70
2023-04-15T01:14:55.177Z,8.70
2023-04-15T01:17:22.062Z,8.60
2023-04-15T01:19:48.919Z,8.70
2023-04-15T01:22:16.073Z,8.60
2023-04-15T01:24:52.199Z,8.60
2023-04-15T01:27:19.242Z,8.50
2023-04-15T01:29:46.508Z,8.50
2023-04-15T01:32:13.074Z,8.50
2023-04-15T01:34:39.673Z,8.50
2023-04-15T01:37:06.435Z,8.50
2023-04-15T01:39:33.578Z,8.40
2023-04-15T01:42:00.162Z,8.40
2023-04-15T01:44:27.594Z,8.40
2023-04-15T01:46:54.457Z,8.40
2023-04-15T01:49:21.144Z,8.40
2023-04-15T01:51:48.022Z,8.40
2023-04-15T01:54:14.628Z,8.30
2023-04-15T01:56:41.291Z,8.30
2023-04-15T01:59:08.567Z,8.20
2023-04-15T02:01:35.278Z,8.20
2023-04-15T02:04:02.051Z,8.30
2023-04-15T02:06:28.724Z,8.20
2023-04-15T02:08:55.469Z,8.20
2023-04-15T02:11:23.100Z,8.20
2023-04-15T02:13:49.939Z,8.10
2023-04-15T02:16:19.955Z,8.00
2023-04-15T02:18:47.093Z,8.10
2023-04-15T02:21:14.115Z,8.00
2023-04-15T02:23:40.986Z,8.00
2023-04-15T02:26:08.074Z,8.00
2023-04-15T02:28:34.824Z,7.90
2023-04-15T02:31:08.199Z,7.90
2023-04-15T02:33:35.058Z,7.90
2023-04-15T02:36:01.734Z,7.90
2023-04-15T02:38:28.354Z,7.90
2023-04-15T02:40:55.419Z,7.90
2023-04-15T02:43:22.059Z,7.90
2023-04-15T02:45:48.931Z,7.80
2023-04-15T02:48:17.967Z,7.70
2023-04-15T02:50:45.830Z,7.70
2023-04-15T02:53:13.360Z,7.70
2023-04-15T02:55:40.148Z,7.70
2023-04-15T02:58:07.052Z,7.60
2023-04-15T03:00:33.783Z,7.60
2023-04-15T03:03:05.661Z,7.60
2023-04-15T03:05:32.549Z,7.60
2023-04-15T03:08:00.582Z,7.60
2023-04-15T03:10:27.321Z,7.60
2023-04-15T03:12:54.048Z,7.60
2023-04-15T03:15:21.312Z,7.50
2023-04-15T03:17:49.546Z,7.50
2023-04-15T03:20:16.949Z,7.50
2023-04-15T03:22:43.982Z,7.40
2023-04-15T03:25:10.677Z,7.40
2023-04-15T03:27:38.568Z,7.40
2023-04-15T03:30:06.624Z,7.30
2023-04-15T03:32:33.538Z,7.30
2023-04-15T03:35:00.224Z,7.30
2023-04-15T03:37:27.458Z,7.20
2023-04-15T03:39:54.042Z,7.20
2023-04-15T03:42:20.827Z,7.20
2023-04-15T03:44:47.444Z,7.20
2023-04-15T03:47:14.056Z,7.10
2023-04-15T03:49:40.652Z,7.10
2023-04-15T03:52:07.328Z,7.10
2023-04-15T03:54:33.904Z,7.10
2023-04-15T03:57:01.290Z,7.10
2023-04-15T03:59:27.892Z,7.10
2023-04-15T04:01:54.795Z,7.10
2023-04-15T04:04:21.674Z,7.00
2023-04-15T04:06:48.456Z,7.00
2023-04-15T04:09:15.508Z,7.00
2023-04-15T04:11:42.297Z,7.00
2023-04-15T04:14:09.337Z,6.90
2023-04-15T04:16:36.370Z,6.90
2023-04-15T04:19:03.282Z,6.90
2023-04-15T04:21:30.763Z,6.90
2023-04-15T04:23:57.432Z,6.80
2023-04-15T04:26:24.014Z,6.80
2023-04-15T04:28:50.764Z,6.80
2023-04-15T04:31:17.602Z,6.80
2023-04-15T04:33:44.319Z,6.80
2023-04-15T04:36:11.007Z,6.80
2023-04-15T04:38:37.677Z,6.80
2023-04-15T04:41:04.382Z,6.70
2023-04-15T04:43:31.077Z,6.70
2023-04-15T04:45:57.716Z,6.70
2023-04-15T04:48:24.330Z,6.70
2023-04-15T04:50:51.549Z,6.70
2023-04-15T04:53:18.203Z,6.70
2023-04-15T04:55:44.811Z,6.60
2023-04-15T04:58:11.723Z,6.60
2023-04-15T05:00:38.475Z,6.60
2023-04-15T05:03:08.641Z,6.60
2023-04-15T05:05:36.974Z,6.60
2023-04-15T05:08:03.735Z,6.60
2023-04-15T05:10:30.482Z,6.60
2023-04-15T05:12:58.077Z,6.60
2023-04-15T05:15:25.436Z,6.60
2023-04-15T05:17:52.199Z,6.60
2023-04-15T05:20:19.151Z,6.60
2023-04-15T05:22:45.897Z,6.60
2023-04-15T05:25:12.967Z,6.60
2023-04-15T05:27:39.911Z,6.60
2023-04-15T05:30:07.258Z,6.60
2023-04-15T05:32:33.892Z,6.60
2023-04-15T05:35:00.746Z,6.60
2023-04-15T05:37:27.661Z,6.60
2023-04-15T05:39:54.247Z,6.60
2023-04-15T05:42:20.972Z,6.60
2023-04-15T05:44:47.723Z,6.60
2023-04-15T05:47:14.384Z,6.50
2023-04-15T05:49:40.936Z,6.50
2023-04-15T05:52:07.571Z,6.50
2023-04-15T05:54:34.216Z,6.50
2023-04-15T05:57:00.951Z,6.50
2023-04-15T05:59:28.374Z,6.50
2023-04-15T06:01:55.253Z,6.50
2023-04-15T06:04:22.907Z,6.50
2023-04-15T06:06:49.755Z,6.50
2023-04-15T06:09:16.850Z,6.50
2023-04-15T06:11:43.657Z,6.50
2023-04-15T06:14:10.420Z,6.50
2023-04-15T06:16:37.425Z,6.50
2023-04-15T06:19:04.438Z,6.60
2023-04-15T06:21:31.665Z,6.60
2023-04-15T06:24:01.471Z,6.60
2023-04-15T06:26:28.373Z,6.60
2023-04-15T06:28:55.678Z,6.70
2023-04-15T06:31:22.598Z,6.70
2023-04-15T06:33:49.590Z,6.80
2023-04-15T06:36:16.341Z,6.80
2023-04-15T06:38:42.978Z,6.90
2023-04-15T06:41:09.852Z,6.90
2023-04-15T06:43:36.504Z,7.00
2023-04-15T06:46:03.181Z,7.10
2023-04-15T06:48:29.835Z,7.10
2023-04-15T06:50:58.293Z,7.30
2023-04-15T06:53:28.002Z,7.40
2023-04-15T06:55:54.932Z,7.40
2023-04-15T06:58:21.854Z,7.40
2023-04-15T07:00:49.062Z,7.40
2023-04-15T07:03:15.987Z,7.40
2023-04-15T07:05:42.750Z,7.40
2023-04-15T07:08:09.600Z,7.50
2023-04-15T07:10:37.056Z,7.60
2023-04-15T07:13:04.569Z,7.60
2023-04-15T07:15:31.213Z,7.70
2023-04-15T07:17:58.246Z,7.80
2023-04-15T07:20:25.012Z,7.90
2023-04-15T07:22:51.696Z,8.00
2023-04-15T07:25:19.020Z,8.10
2023-04-15T07:27:45.902Z,8.30
2023-04-15T07:30:13.176Z,8.40
2023-04-15T07:32:40.521Z,8.50
2023-04-15T07:35:07.774Z,8.60
2023-04-15T07:37:34.654Z,8.70
2023-04-15T07:40:01.994Z,8.80
2023-04-15T07:42:29.333Z,8.90
2023-04-15T07:44:56.606Z,9.10
2023-04-15T07:47:23.271Z,9.10
2023-04-15T07:49:51.444Z,9.20
2023-04-15T07:52:18.585Z,9.30
2023-04-15T07:54:45.573Z,9.40
2023-04-15T07:57:12.304Z,9.50
2023-04-15T07:59:38.939Z,9.60
2023-04-15T08:02:05.575Z,9.70
2023-04-15T08:04:32.641Z,9.80
2023-04-15T08:06:59.862Z,9.80
2023-04-15T08:09:27.253Z,9.90
2023-04-15T08:11:53.967Z,10.00
2023-04-15T08:14:20.787Z,10.10
2023-04-15T08:16:47.660Z,10.20
2023-04-15T08:19:14.276Z,10.40
2023-04-15T08:21:41.058Z,10.40
2023-04-15T08:24:08.062Z,10.30
2023-04-15T08:26:34.719Z,10.50
2023-04-15T08:29:01.744Z,10.50
2023-04-15T08:31:30.045Z,10.50
2023-04-15T08:33:57.702Z,10.60
2023-04-15T08:36:24.335Z,10.60
2023-04-15T08:38:51.202Z,10.60
2023-04-15T08:41:23.508Z,10.80
2023-04-15T08:43:54.835Z,10.90
2023-04-15T08:46:22.737Z,11.00
2023-04-15T08:48:50.108Z,11.10
2023-04-15T08:51:18.349Z,11.10
2023-04-15T08:53:47.202Z,11.10
2023-04-15T08:56:16.727Z,11.00
2023-04-15T08:58:45.010Z,11.00
2023-04-15T09:01:13.366Z,11.10
2023-04-15T09:03:40.847Z,11.10
2023-04-15T09:06:08.304Z,11.30
2023-04-15T09:08:35.799Z,11.30
2023-04-15T09:11:03.647Z,11.30
2023-04-15T09:13:31.152Z,11.30
2023-04-15T09:15:58.448Z,11.20
2023-04-15T09:18:29.742Z,11.30
2023-04-15T09:20:57.572Z,11.40
2023-04-15T09:23:24.283Z,11.40
2023-04-15T09:25:51.042Z,11.40
2023-04-15T09:28:24.677Z,11.40
2023-04-15T09:30:55.892Z,11.60
2023-04-15T09:33:23.029Z,11.70
2023-04-15T09:36:05.247Z,11.80
2023-04-15T09:38:32.671Z,12.00
2023-04-15T09:40:59.558Z,12.10
2023-04-15T09:43:41.618Z,12.10
2023-04-15T09:46:08.408Z,12.10
2023-04-15T09:48:35.385Z,12.20
2023-04-15T09:51:02.452Z,12.10
2023-04-15T09:53:31.267Z,12.20
2023-04-15T09:56:03.234Z,12.40
2023-04-15T09:58:35.356Z,12.40
2023-04-15T10:01:05.164Z,12.40
2023-04-15T10:03:35.506Z,12.40
2023-04-15T10:06:03.725Z,12.40
2023-04-15T10:08:33.088Z,12.50
2023-04-15T10:11:02.036Z,12.60
2023-04-15T10:13:37.071Z,12.80
2023-04-15T10:16:15.335Z,12.80
2023-04-15T10:18:47.407Z,13.20
2023-04-15T10:21:18.409Z,13.10
2023-04-15T10:23:48.983Z,13.00
2023-04-15T10:26:17.608Z,13.10
2023-04-15T10:28:45.059Z,13.30
2023-04-15T10:31:16.184Z,13.20
2023-04-15T10:33:44.399Z,13.40
2023-04-15T10:36:13.107Z,13.50
2023-04-15T10:38:44.529Z,13.70
2023-04-15T10:41:20.158Z,13.70
2023-04-15T10:44:04.506Z,13.90
2023-04-15T10:46:45.791Z,14.10
2023-04-15T10:49:18.250Z,14.30
2023-04-15T10:51:53.496Z,14.40
2023-04-15T10:54:31.683Z,14.40
2023-04-15T10:57:02.030Z,14.30
2023-04-15T10:59:59.100Z,14.20
2023-04-15T11:02:47.438Z,14.10
2023-04-15T11:05:16.258Z,14.50
2023-04-15T11:07:58.990Z,14.90
2023-04-15T11:10:26.121Z,15.00
2023-04-15T11:12:54.629Z,15.00
2023-04-15T11:15:41.938Z,14.90
2023-04-15T11:18:08.574Z,15.20
2023-04-15T11:20:36.373Z,15.10
2023-04-15T11:23:11.919Z,15.10
2023-04-15T11:25:41.746Z,15.30
2023-04-15T11:28:08.730Z,15.30
2023-04-15T11:30:38.044Z,15.50
2023-04-15T11:33:08.347Z,15.70
2023-04-15T11:35:35.976Z,16.10
2023-04-15T11:38:08.622Z,15.60
2023-04-15T11:40:36.410Z,14.90
2023-04-15T11:43:06.852Z,14.70
2023-04-15T11:45:33.613Z,15.00
2023-04-15T11:48:12.219Z,15.50
2023-04-15T11:50:42.981Z,15.90
2023-04-15T11:53:12.632Z,15.90
2023-04-15T11:55:47.117Z,16.10
2023-04-15T11:58:19.675Z,15.70
2023-04-15T12:00:54.954Z,15.00
2023-04-15T12:03:23.781Z,15.40
2023-04-15T12:06:12.454Z,15.90
2023-04-15T12:09:03.652Z,16.00
2023-04-15T12:11:51.515Z,15.70
2023-04-15T12:14:25.383Z,15.50
2023-04-15T12:16:54.831Z,15.60
2023-04-15T12:19:29.982Z,15.70
2023-04-15T12:22:01.675Z,16.00
2023-04-15T12:24:31.052Z,15.80
2023-04-15T12:27:01.936Z,16.10
2023-04-15T12:29:29.829Z,16.30
2023-04-15T12:32:08.190Z,15.60
2023-04-15T12:34:34.873Z,14.80
2023-04-15T12:37:03.529Z,15.50
2023-04-15T12:39:32.582Z,15.50
2023-04-15T12:42:02.797Z,15.60
2023-04-15T12:44:29.533Z,15.30
2023-04-15T12:46:56.775Z,15.90
2023-04-15T12:49:24.519Z,15.90
2023-04-15T12:51:55.860Z,16.00
2023-04-15T12:54:23.432Z,15.30
2023-04-15T12:56:51.289Z,15.00
2023-04-15T12:59:18.800Z,15.80
2023-04-15T13:01:47.507Z,15.80
2023-04-15T13:04:15.049Z,15.30
2023-04-15T13:06:42.217Z,15.20
2023-04-15T13:09:09.089Z,15.00
2023-04-15T13:11:36.504Z,15.10
2023-04-15T13:14:05.851Z,15.20
2023-04-15T13:16:33.396Z,16.00
2023-04-15T13:19:01.643Z,15.60
2023-04-15T13:21:28.501Z,15.10
2023-04-15T13:23:55.714Z,14.90
2023-04-15T13:26:22.351Z,15.40
2023-04-15T13:28:49.022Z,16.10
2023-04-15T13:31:16.076Z,16.70
2023-04-15T13:33:42.817Z,16.40
2023-04-15T13:36:09.734Z,15.80
2023-04-15T13:38:36.566Z,14.80
2023-04-15T13:41:03.792Z,15.40
2023-04-15T13:43:30.680Z,15.60
2023-04-15T13:45:57.413Z,14.90
2023-04-15T13:48:24.091Z,14.50
2023-04-15T13:50:50.953Z,15.00
2023-04-15T13:53:18.823Z,15.40
2023-04-15T13:55:45.953Z,15.40
2023-04-15T13:58:13.296Z,15.20
2023-04-15T14:00:40.720Z,15.50
2023-04-15T14:03:07.579Z,15.90
2023-04-15T14:05:34.564Z,16.30
2023-04-15T14:08:01.264Z,15.90
2023-04-15T14:10:28.111Z,15.60
2023-04-15T14:12:54.773Z,15.30
2023-04-15T14:15:21.528Z,15.20
2023-04-15T14:17:48.339Z,14.80
2023-04-15T14:20:16.919Z,14.30
2023-04-15T14:22:44.147Z,14.20
2023-04-15T14:25:15.117Z,14.50
2023-04-15T14:27:50.059Z,14.50
2023-04-15T14:30:17.211Z,14.00
2023-04-15T14:32:43.815Z,14.10
2023-04-15T14:35:11.568Z,13.50
2023-04-15T14:37:38.446Z,13.50
2023-04-15T14:40:06.042Z,13.10
2023-04-15T14:42:32.748Z,13.40
2023-04-15T14:44:59.494Z,13.70
2023-04-15T14:47:26.443Z,13.40
2023-04-15T14:49:53.219Z,13.00
2023-04-15T14:52:19.937Z,13.30
2023-04-15T14:54:46.632Z,13.40
2023-04-15T14:57:13.173Z,13.40
2023-04-15T14:59:39.907Z,13.30
2023-04-15T15:02:06.695Z,13.30
2023-04-15T15:04:35.932Z,13.00
2023-04-15T15:07:02.762Z,12.90
2023-04-15T15:09:29.860Z,12.80
2023-04-15T15:11:57.217Z,13.10
2023-04-15T15:14:24.480Z,13.10
2023-04-15T15:16:51.222Z,12.60
2023-04-15T15:19:17.903Z,12.60
2023-04-15T15:21:44.615Z,12.60
2023-04-15T15:24:11.438Z,13.10
2023-04-15T15:26:38.195Z,13.10
2023-04-15T15:29:05.208Z,12.70
2023-04-15T15:31:31.904Z,12.50
2023-04-15T15:33:58.790Z,12.70
2023-04-15T15:36:29.889Z,12.60
2023-04-15T15:38:57.635Z,12.30
2023-04-15T15:41:25.880Z,11.90
2023-04-15T15:43:54.300Z,12.00
2023-04-15T15:46:21.151Z,12.20
2023-04-15T15:48:47.850Z,12.20
2023-04-15T15:51:14.492Z,12.20
2023-04-15T15:53:41.324Z,12.00
2023-04-15T15:56:08.095Z,12.10
2023-04-15T15:58:34.682Z,12.00
2023-04-15T16:01:02.132Z,12.00
2023-04-15T16:03:29.673Z,12.00
2023-04-15T16:06:00.563Z,11.70
2023-04-15T16:08:27.231Z,11.60
2023-04-15T16:10:54.419Z,11.70
2023-04-15T16:13:21.743Z,11.60
2023-04-15T16:15:50.064Z,11.30
2023-04-15T16:18:17.395Z,11.30
2023-04-15T16:20:44.865Z,11.40
2023-04-15T16:23:16.555Z,11.40
2023-04-15T16:25:47.526Z,11.50
2023-04-15T16:28:25.638Z,11.20
2023-04-15T16:30:53.581Z,11.30
2023-04-15T16:33:20.414Z,11.00
2023-04-15T16:35:47.136Z,10.90
2023-04-15T16:38:13.916Z,11.10
2023-04-15T16:40:40.575Z,11.00
2023-04-15T16:43:11.129Z,11.20
2023-04-15T16:45:37.964Z,11.10
2023-04-15T16:48:04.996Z,11.00
2023-04-15T16:50:31.812Z,11.10
2023-04-15T16:52:58.626Z,10.80
2023-04-15T16:55:25.319Z,11.00
2023-04-15T16:58:02.401Z,11.00
2023-04-15T17:00:31.182Z,11.20
2023-04-15T17:02:58.659Z,11.00
2023-04-15T17:05:27.614Z,10.80
2023-04-15T17:07:54.835Z,10.80
2023-04-15T17:10:21.495Z,10.70
2023-04-15T17:12:49.745Z,10.60
2023-04-15T17:15:16.702Z,10.80
2023-04-15T17:17:43.462Z,10.50
2023-04-15T17:20:10.848Z,10.60
2023-04-15T17:22:37.623Z,10.70
2023-04-15T17:25:05.040Z,10.90
2023-04-15T17:27:31.784Z,10.80
2023-04-15T17:29:58.596Z,10.70
2023-04-15T17:32:31.459Z,10.60
2023-04-15T17:34:58.227Z,10.50
2023-04-15T17:37:24.848Z,10.50
2023-04-15T17:39:54.354Z,10.30
2023-04-15T17:42:22.629Z,10.20
2023-04-15T17:44:49.613Z,10.30
2023-04-15T17:47:17.069Z,10.40
2023-04-15T17:49:45.064Z,10.50
2023-04-15T17:52:12.060Z,10.20
2023-04-15T17:54:38.712Z,10.40
2023-04-15T17:57:05.555Z,10.30
2023-04-15T17:59:33.833Z,10.40
2023-04-15T18:02:00.603Z,10.20
2023-04-15T18:04:27.408Z,10.20
2023-04-15T18:06:54.284Z,10.30
2023-04-15T18:09:22.170Z,10.10
2023-04-15T18:11:49.186Z,10.20
2023-04-15T18:14:26.963Z,10.20
2023-04-15T18:17:00.000Z,10.20
2023-04-15T18:19:26.954Z,10.20
2023-04-15T18:21:53.550Z,10.10
2023-04-15T18:24:21.493Z,10.00
2023-04-15T18:26:49.310Z,10.10
2023-04-15T18:29:16.596Z,10.10
2023-04-15T18:31:43.390Z,9.90
2023-04-15T18:34:10.313Z,9.90
2023-04-15T18:36:36.976Z,9.90
2023-04-15T18:39:04.877Z,9.90
2023-04-15T18:41:31.736Z,9.80
2023-04-15T18:43:58.381Z,9.90
2023-04-15T18:46:25.104Z,10.00
2023-04-15T18:48:54.696Z,10.00
2023-04-15T18:51:21.426Z,10.10
2023-04-15T18:53:48.141Z,9.70
2023-04-15T18:56:14.955Z,9.70
2023-04-15T18:59:08.326Z,9.80
2023-04-15T19:01:29.746Z,9.80
2023-04-15T19:03:56.459Z,9.70
2023-04-15T19:06:26.241Z,9.50
2023-04-15T19:08:54.989Z,9.60
2023-04-15T19:11:21.890Z,9.60
2023-04-15T19:13:48.546Z,9.60
2023-04-15T19:16:15.424Z,9.60
2023-04-15T19:18:42.942Z,9.60
2023-04-15T19:21:10.843Z,9.50
2023-04-15T19:23:38.307Z,9.50
2023-04-15T19:26:05.309Z,9.50
2023-04-15T19:28:32.013Z,9.40
2023-04-15T19:30:58.917Z,9.40
2023-04-15T19:33:30.992Z,9.40
2023-04-15T19:36:01.861Z,9.40
2023-04-15T19:38:28.508Z,9.40
2023-04-15T19:40:55.237Z,9.40
2023-04-15T19:43:21.931Z,9.40
2023-04-15T19:45:52.156Z,9.40
2023-04-15T19:48:19.232Z,9.30
2023-04-15T19:50:46.139Z,9.30
2023-04-15T19:53:12.743Z,9.20
2023-04-15T19:55:39.335Z,9.30
2023-04-15T19:58:06.073Z,9.30
2023-04-15T20:00:32.747Z,9.30
2023-04-15T20:02:59.491Z,9.30
2023-04-15T20:05:26.338Z,9.20
2023-04-15T20:07:53.759Z,9.30
2023-04-15T20:10:21.476Z,9.30
2023-04-15T20:12:52.360Z,9.20
2023-04-15T20:15:21.471Z,9.30
2023-04-15T20:17:48.187Z,9.20
2023-04-15T20:20:14.930Z,9.20
2023-04-15T20:22:41.507Z,9.20
2023-04-15T20:25:08.787Z,9.30
2023-04-15T20:27:35.520Z,9.30
2023-04-15T20:30:04.217Z,9.30
2023-04-15T20:32:35.194Z,9.10
2023-04-15T20:35:02.980Z,9.20
2023-04-15T20:37:30.937Z,9.10
2023-04-15T20:39:57.685Z,9.30
2023-04-15T20:42:24.548Z,9.30
2023-04-15T20:44:51.430Z,9.10
2023-04-15T20:47:18.524Z,9.20
2023-04-15T20:49:47.312Z,9.30
2023-04-15T20:52:13.926Z,9.10
2023-04-15T20:54:40.702Z,9.10
2023-04-15T20:57:07.428Z,9.20
2023-04-15T20:59:34.858Z,9.00
2023-04-15T21:02:01.891Z,9.10
2023-04-15T21:04:28.496Z,9.10
2023-04-15T21:06:55.209Z,9.10
2023-04-15T21:09:21.857Z,9.10
2023-04-15T21:14:19.124Z,9.10
2023-04-15T21:16:46.038Z,9.20
2023-04-15T21:19:12.764Z,9.20
2023-04-15T21:21:39.415Z,9.20
2023-04-15T21:24:07.714Z,9.20
2023-04-15T21:26:35.963Z,9.00
2023-04-15T21:29:02.992Z,9.00
2023-04-15T21:31:29.899Z,9.10
2023-04-15T21:33:56.695Z,9.10
2023-04-15T21:36:23.350Z,9.20
2023-04-15T21:38:50.020Z,9.10
2023-04-15T21:41:16.693Z,9.10
2023-04-15T21:43:43.246Z,9.00
2023-04-15T21:46:22.892Z,9.00
2023-04-15T21:48:53.138Z,8.90
2023-04-15T21:51:20.090Z,9.10
2023-04-15T21:53:46.804Z,9.00
2023-04-15T21:56:13.468Z,9.00
2023-04-15T21:58:40.155Z,9.00
2023-04-15T22:01:06.875Z,8.90
2023-04-15T22:03:35.000Z,9.00
2023-04-15T22:06:03.146Z,9.00
2023-04-15T22:08:36.131Z,9.00
2023-04-15T22:11:09.088Z,9.00
2023-04-15T22:13:36.051Z,9.00
2023-04-15T22:16:02.943Z,9.00
2023-04-15T22:18:29.576Z,9.10
2023-04-15T22:20:56.301Z,9.00
2023-04-15T22:23:22.980Z,8.90
2023-04-15T22:25:49.571Z,9.00
2023-04-15T22:28:16.290Z,8.90
2023-04-15T22:30:43.154Z,9.00
2023-04-15T22:33:10.330Z,8.90
2023-04-15T22:35:37.612Z,9.00
2023-04-15T22:38:05.038Z,8.90
2023-04-15T22:40:31.982Z,8.90
2023-04-15T22:42:58.657Z,8.90
2023-04-15T22:45:25.369Z,8.90
2023-04-15T22:47:52.055Z,8.90
2023-04-15T22:50:18.888Z,8.90
2023-04-15T22:52:46.645Z,8.90
2023-04-15T22:55:14.118Z,8.90
2023-04-15T22:57:40.786Z,8.90
2023-04-15T23:00:09.375Z,8.80
2023-04-15T23:02:36.047Z,8.90
2023-04-15T23:05:05.035Z,8.80
2023-04-15T23:07:39.359Z,8.90
2023-04-15T23:10:06.952Z,8.90
2023-04-15T23:12:33.586Z,8.90
2023-04-15T23:15:00.447Z,8.90
2023-04-15T23:17:27.199Z,9.00
2023-04-15T23:19:53.917Z,9.00
2023-04-15T23:22:20.537Z,9.00
2023-04-15T23:24:47.116Z,9.00
2023-04-15T23:27:13.660Z,9.00
2023-04-15T23:29:40.502Z,9.00
2023-04-15T23:32:07.098Z,9.00
2023-04-15T23:34:33.679Z,8.90
2023-04-15T23:37:00.355Z,9.00
2023-04-15T23:39:27.056Z,8.90
2023-04-15T23:41:53.771Z,8.90
2023-04-15T23:44:20.372Z,8.90
2023-04-15T23:46:47.081Z,8.90
2023-04-15T23:49:13.787Z,8.90
2023-04-15T23:51:40.907Z,8.90
2023-04-15T23:54:07.558Z,8.90
2023-04-15T23:56:34.225Z,8.90
2023-04-15T23:59:00.920Z,8.90
